Terminal Aerodrome Forecast
Issued by NWS Grand Forks, ND

Home | Current Version | Previous Version | Graphics & Text | Print | Product List | Glossary On
Versions: 1 2 3 4 5 6 7 8 9 10 11 12 13 14 15 16 17 18 19 20 21 22 23
000
FTUS43 KFGF 201521 AAC
TAFGFK
TAF AMD
KGFK 201521Z 2015/2112 VRB05KT 1SM -RA BR VCSH OVC100
      TEMPO 2015/2016 1/4SM FG BKN020
     FM201600 25008KT 4SM BR VCSH BKN035
      TEMPO 2016/2017 -SHRA
     FM201800 25012KT P6SM VCSH OVC035
     FM202000 27013KT P6SM BKN040
     FM210700 23006KT P6SM SCT100=

USA.gov is the U.S. government's official web portal to all federal, state and local government web resources and services.